^^
Saratoga-Weather Station Historical Data
Daily Summary for December 30, 2021 Units:  English    Metric   Both
Daily Weekly Monthly Yearly Custom
  High: Low: Average:
Temperature: 57 °F 51.4 °F 55 °F
Dew Point: 54.5 °F 49.8 °F 53.2 °F
Humidity: 96% 90% 94%
Wind Speed: 10.1mph 0mph 2.2mph
Wind Gust: 14mph - -
Wind- - West
Pressure: 30.2 in 29.9 in -
Precipitation: 0.09 in    
Historical Graphs
 
 
Tabular Data for December 30, 2021
Time Temperature Dew Point Pressure Wind Wind Speed Wind Gust Humidity Rainfall Rate (Hourly) solar
00:03 55.6 °F 53.2 °F 29.9 in WSW 2.9 mph 5 mph 92% 0 in 0 W/m2
00:08 55.6 °F 53.2 °F 29.9 in West 2.9 mph 7 mph 92% 0 in 0 W/m2
00:13 55.6 °F 53.2 °F 29.9 in West 2 mph 7 mph 92% 0 in 0 W/m2
00:18 55.6 °F 53.2 °F 29.9 in SW 6.9 mph 10 mph 92% 0 in 0 W/m2
00:23 55.8 °F 53.4 °F 29.9 in WNW 2.9 mph 11 mph 92% 0 in 0 W/m2
00:28 55.6 °F 53.2 °F 29.9 in West 4 mph 12 mph 92% 0 in 0 W/m2
00:33 55.6 °F 53.2 °F 30 in WNW 8.1 mph 12 mph 92% 0 in 0 W/m2
00:38 55.4 °F 53.4 °F 30 in WSW 2.9 mph 13 mph 93% 0 in 0 W/m2
00:43 55.4 °F 53.4 °F 30 in West 8.9 mph 9 mph 93% 0 in 0 W/m2
00:48 55.2 °F 53.2 °F 30 in West 4 mph 7 mph 93% 0 in 0 W/m2
00:53 55.2 °F 53.2 °F 30 in WSW 2.9 mph 10 mph 93% 0 in 0 W/m2
00:58 55 °F 53.1 °F 30 in West 6 mph 12 mph 93% 0 in 0 W/m2
01:03 55 °F 53.1 °F 30 in West 6.9 mph 8 mph 93% 0 in 0 W/m2
01:08 55 °F 53.4 °F 30 in WSW 2.9 mph 6 mph 94% 0 in 0 W/m2
01:13 55 °F 53.4 °F 30 in West 4 mph 6 mph 94% 0 in 0 W/m2
01:18 55 °F 53.4 °F 30 in WNW 4 mph 8 mph 94% 0 in 0 W/m2
01:23 55 °F 53.4 °F 30 in WNW 6.9 mph 7 mph 94% 0 in 0 W/m2
01:28 55 °F 53.4 °F 30 in West 4 mph 6 mph 94% 0 in 0 W/m2
01:33 55 °F 53.6 °F 30 in West 2 mph 6 mph 95% 0 in 0 W/m2
01:38 55 °F 53.6 °F 30 in NW 4 mph 8 mph 95% 0 in 0 W/m2
01:43 55 °F 53.6 °F 30 in West 2 mph 4 mph 95% 0 in 0 W/m2
01:48 55 °F 53.6 °F 30 in NW 6.9 mph 8 mph 95% 0.01 in 0 W/m2
01:53 55 °F 53.6 °F 30 in West 2.9 mph 7 mph 95% 0.01 in 0 W/m2
01:58 55 °F 53.6 °F 30 in WNW 2.9 mph 8 mph 95% 0.01 in 0 W/m2
02:03 55 °F 53.6 °F 30 in West 4 mph 5 mph 95% 0.01 in 0 W/m2
02:08 55 °F 53.6 °F 30 in WNW 0.9 mph 4 mph 95% 0.01 in 0 W/m2
02:13 55 °F 53.6 °F 30 in NW 2.9 mph 7 mph 95% 0.01 in 0 W/m2
02:18 55 °F 53.6 °F 30 in WNW 0.9 mph 5 mph 95% 0.01 in 0 W/m2
02:23 55 °F 53.6 °F 30 in Calm   2 mph 95% 0.02 in 0 W/m2
02:28 55 °F 53.6 °F 30 in NW 2.9 mph 4 mph 95% 0.02 in 0 W/m2
02:33 55 °F 53.6 °F 30 in Calm   3 mph 95% 0.02 in 0 W/m2
02:38 55 °F 53.6 °F 30 in WSW 0.9 mph 4 mph 95% 0.02 in 0 W/m2
02:43 55 °F 53.6 °F 30 in Calm   2 mph 95% 0.02 in 0 W/m2
02:48 55 °F 53.6 °F 30 in Calm   2 mph 95% 0.02 in 0 W/m2
02:53 55 °F 53.6 °F 30 in SW 0.9 mph 2 mph 95% 0.02 in 0 W/m2
02:58 55.2 °F 53.8 °F 30 in West 0.9 mph 7 mph 95% 0.02 in 0 W/m2
03:03 55.2 °F 54.1 °F 30 in NW 2.9 mph 4 mph 96% 0.02 in 0 W/m2
03:08 55.2 °F 54.1 °F 30 in WNW 0.9 mph 4 mph 96% 0.02 in 0 W/m2
03:13 55.2 °F 54.1 °F 30 in NW 0.9 mph 3 mph 96% 0.03 in 0 W/m2
03:18 55.2 °F 54.1 °F 30 in WNW 10.1 mph 10 mph 96% 0.03 in 0 W/m2
03:23 55.2 °F 54.1 °F 30 in West 4 mph 5 mph 96% 0.02 in 0 W/m2
03:28 55.2 °F 54.1 °F 30 in NNW 0.9 mph 4 mph 96% 0.03 in 0 W/m2
03:33 55.2 °F 54.1 °F 30 in NNW 4 mph 4 mph 96% 0.03 in 0 W/m2
03:38 55.2 °F 54.1 °F 30 in West 2 mph 5 mph 96% 0.02 in 0 W/m2
03:43 55.2 °F 54.1 °F 30 in NNW 6 mph 6 mph 96% 0.02 in 0 W/m2
03:48 55.2 °F 54.1 °F 30 in WNW 2.9 mph 5 mph 96% 0.03 in 0 W/m2
03:53 55.2 °F 54.1 °F 30 in WNW 2.9 mph 3 mph 96% 0.02 in 0 W/m2
03:58 55.2 °F 54.1 °F 30 in WNW 4 mph 9 mph 96% 0.02 in 0 W/m2
04:03 55.2 °F 54.1 °F 30 in West 4 mph 6 mph 96% 0.02 in 0 W/m2
04:08 55.2 °F 54.1 °F 30 in WNW 4 mph 9 mph 96% 0.02 in 0 W/m2
04:13 55.2 °F 54.1 °F 30 in West 0.9 mph 11 mph 96% 0.02 in 0 W/m2
04:18 55.2 °F 54.1 °F 30 in NW 2.9 mph 5 mph 96% 0.02 in 0 W/m2
04:23 55.2 °F 54.1 °F 30 in WNW 2.9 mph 11 mph 96% 0.02 in 0 W/m2
04:28 55.2 °F 54.1 °F 30 in NNW 4.9 mph 10 mph 96% 0.02 in 0 W/m2
04:33 55.2 °F 54.1 °F 30 in WNW 8.9 mph 9 mph 96% 0.02 in 0 W/m2
04:38 55.2 °F 53.8 °F 30 in NNW 0.9 mph 10 mph 95% 0.02 in 0 W/m2
04:43 55.2 °F 53.8 °F 30 in WNW 2 mph 4 mph 95% 0.02 in 0 W/m2
04:48 55.2 °F 53.8 °F 30 in WNW 6.9 mph 9 mph 95% 0.01 in 0 W/m2
04:53 55.2 °F 53.8 °F 30 in WNW 2 mph 9 mph 95% 0.01 in 0 W/m2
04:58 55.2 °F 53.8 °F 30 in WNW 2.9 mph 6 mph 95% 0.01 in 0 W/m2
05:03 55.2 °F 53.8 °F 30 in NNW 0.9 mph 10 mph 95% 0.01 in 0 W/m2
05:08 55.2 °F 53.8 °F 30 in Calm   6 mph 95% 0.01 in 0 W/m2
05:14 55.2 °F 53.8 °F 30 in WNW 2.9 mph 10 mph 95% 0.02 in 0 W/m2
05:19 55.2 °F 53.8 °F 30 in NW 2 mph 6 mph 95% 0.02 in 0 W/m2
05:24 55 °F 53.6 °F 30 in WNW 2.9 mph 10 mph 95% 0.01 in 0 W/m2
05:29 55 °F 53.6 °F 30 in West 2.9 mph 4 mph 95% 0.01 in 0 W/m2
05:34 55 °F 53.6 °F 30 in WSW 4 mph 7 mph 95% 0.01 in 0 W/m2
05:39 55 °F 53.6 °F 30 in NW 4.9 mph 6 mph 95% 0.01 in 0 W/m2
05:44 55 °F 53.6 °F 30 in NW 2 mph 4 mph 95% 0.01 in 0 W/m2
05:49 54.9 °F 53.4 °F 30 in NW 8.9 mph 9 mph 95% 0.01 in 0 W/m2
05:54 55 °F 53.6 °F 30 in NNW 0.9 mph 5 mph 95% 0.01 in 0 W/m2
05:59 54.9 °F 53.4 °F 30 in WSW 4.9 mph 9 mph 95% 0.01 in 0 W/m2
06:04 54.9 °F 53.4 °F 30 in SW 4 mph 8 mph 95% 0.01 in 0 W/m2
06:09 54.9 °F 53.4 °F 30 in Calm   6 mph 95% 0.01 in 0 W/m2
06:14 54.9 °F 53.4 °F 30 in SW 4 mph 14 mph 95% 0.01 in 0 W/m2
06:19 54.9 °F 53.4 °F 30 in NNW 2.9 mph 4 mph 95% 0.01 in 0 W/m2
06:24 54.9 °F 53.4 °F 30 in NW 2 mph 14 mph 95% 0.01 in 0 W/m2
06:29 54.9 °F 53.4 °F 30 in WNW 2.9 mph 6 mph 95% 0.01 in 0 W/m2
06:34 54.9 °F 53.4 °F 30 in Calm   5 mph 95% 0.01 in 0 W/m2
06:39 54.9 °F 53.4 °F 30 in NW 2.9 mph 10 mph 95% 0.01 in 0 W/m2
06:44 54.9 °F 53.4 °F 30 in NW 2.9 mph 8 mph 95% 0.01 in 0 W/m2
06:49 54.9 °F 53.4 °F 30 in NNW 4.9 mph 12 mph 95% 0.01 in 0 W/m2
06:54 54.9 °F 53.8 °F 30 in WSW 2.9 mph 10 mph 96% 0.01 in 0 W/m2
06:59 54.9 °F 53.8 °F 30 in NW 4 mph 11 mph 96% 0.01 in 0 W/m2
07:04 54.9 °F 53.4 °F 30 in NW 2 mph 4 mph 95% 0.01 in 0 W/m2
07:09 54.9 °F 53.4 °F 30.1 in WSW 2.9 mph 12 mph 95% 0.01 in 0 W/m2
07:14 54.9 °F 53.4 °F 30.1 in WNW 2.9 mph 11 mph 95% 0 in 0 W/m2
07:19 54.9 °F 53.4 °F 30.1 in NNE 2.9 mph 12 mph 95% 0 in 0 W/m2
07:24 54.9 °F 53.4 °F 30.1 in NNW 0.9 mph 4 mph 95% 0 in 0 W/m2
07:29 54.9 °F 53.8 °F 30.1 in NW 2.9 mph 6 mph 96% 0 in 0 W/m2
07:34 54.9 °F 53.8 °F 30.1 in Calm   3 mph 96% 0 in 0 W/m2
07:39 54.9 °F 53.8 °F 30.1 in WNW 2.9 mph 4 mph 96% 0 in 0 W/m2
07:44 54.9 °F 53.8 °F 30.1 in WNW 4 mph 5 mph 96% 0 in 0 W/m2
07:49 54.9 °F 53.8 °F 30.1 in West 2 mph 6 mph 96% 0 in 0 W/m2
07:54 54.9 °F 53.8 °F 30.1 in WNW 2 mph 4 mph 96% 0 in 0 W/m2
07:59 54.9 °F 53.8 °F 30.1 in West 2.9 mph 9 mph 96% 0.01 in 0 W/m2
08:04 54.9 °F 53.8 °F 30.1 in NW 4 mph 4 mph 96% 0.01 in 0 W/m2
08:09 54.9 °F 53.8 °F 30.1 in Calm   4 mph 96% 0.01 in 0 W/m2
08:14 54.9 °F 53.8 °F 30.1 in West 0.9 mph 4 mph 96% 0.01 in 0 W/m2
08:19 54.9 °F 53.8 °F 30.1 in WNW 8.9 mph 9 mph 96% 0.01 in 0 W/m2
08:24 54.9 °F 53.8 °F 30.1 in Calm   4 mph 96% 0.01 in 0 W/m2
08:29 54.9 °F 53.8 °F 30.1 in NE 2.9 mph 3 mph 96% 0.01 in 0 W/m2
08:34 54.9 °F 53.8 °F 30.1 in West 2.9 mph 9 mph 96% 0.01 in 0 W/m2
08:39 54.9 °F 53.8 °F 30.1 in WNW 2 mph 6 mph 96% 0.01 in 0 W/m2
08:44 54.9 °F 53.8 °F 30.1 in NW 4 mph 9 mph 96% 0.01 in 0 W/m2
08:49 54.9 °F 53.8 °F 30.1 in Calm   2 mph 96% 0.01 in 0 W/m2
08:54 54.9 °F 53.8 °F 30.1 in NNW 4 mph 9 mph 96% 0.01 in 5 W/m2
08:59 54.9 °F 53.8 °F 30.1 in WNW 4 mph 12 mph 96% 0 in 7 W/m2
09:04 54.9 °F 53.8 °F 30.1 in SSW 0.9 mph 4 mph 96% 0 in 9 W/m2
09:09 54.9 °F 53.8 °F 30.1 in West 2 mph 4 mph 96% 0 in 12 W/m2
09:14 54.9 °F 53.8 °F 30.1 in South 2 mph 5 mph 96% 0 in 12 W/m2
09:19 54.9 °F 53.8 °F 30.1 in NW 0.9 mph 4 mph 96% 0 in 14 W/m2
09:24 54.9 °F 53.8 °F 30.1 in WSW 2 mph 7 mph 96% 0 in 14 W/m2
09:29 54.9 °F 53.8 °F 30.1 in West 8.9 mph 9 mph 96% 0 in 18 W/m2
09:34 55 °F 54 °F 30.1 in WNW 4 mph 7 mph 96% 0 in 23 W/m2
09:39 55 °F 54 °F 30.1 in WNW 2 mph 4 mph 96% 0 in 23 W/m2
09:44 55 °F 54 °F 30.1 in WNW 8.1 mph 12 mph 96% 0 in 21 W/m2
09:49 55 °F 54 °F 30.1 in NNW 2 mph 5 mph 96% 0 in 18 W/m2
09:54 55 °F 54 °F 30.1 in WSW 0.9 mph 11 mph 96% 0 in 26 W/m2
09:59 55 °F 54 °F 30.1 in East 4 mph 4 mph 96% 0 in 26 W/m2
10:04 55 °F 54 °F 30.1 in West 0.9 mph 2 mph 96% 0 in 30 W/m2
10:09 55 °F 54 °F 30.1 in Calm   6 mph 96% 0 in 26 W/m2
10:14 55.2 °F 54.1 °F 30.1 in WSW 0.9 mph 5 mph 96% 0 in 30 W/m2
10:19 55.2 °F 53.8 °F 30.1 in North 2.9 mph 3 mph 95% 0 in 21 W/m2
10:24 55.2 °F 54.1 °F 30.1 in SW 2 mph 6 mph 96% 0 in 37 W/m2
10:29 55.2 °F 54.1 °F 30.1 in West 2 mph 5 mph 96% 0 in 25 W/m2
10:34 55.2 °F 54.1 °F 30.1 in WNW 0.9 mph 3 mph 96% 0 in 33 W/m2
10:39 55.4 °F 54.3 °F 30.1 in SSE 2 mph 3 mph 96% 0 in 35 W/m2
10:44 55.4 °F 54.3 °F 30.1 in North 2 mph 2 mph 96% 0 in 44 W/m2
10:49 55.4 °F 54.3 °F 30.1 in WNW 2 mph 7 mph 96% 0 in 51 W/m2
10:54 55.4 °F 54 °F 30.1 in South 2.9 mph 5 mph 95% 0 in 40 W/m2
10:59 55.6 °F 54.1 °F 30.1 in WNW 2.9 mph 6 mph 95% 0 in 40 W/m2
11:04 55.6 °F 54.1 °F 30.1 in West 4 mph 4 mph 95% 0 in 32 W/m2
11:09 55.6 °F 54.1 °F 30.1 in NW 2.9 mph 4 mph 95% 0 in 33 W/m2
11:14 55.6 °F 54.1 °F 30.1 in West 6 mph 6 mph 95% 0 in 40 W/m2
11:19 55.6 °F 54.1 °F 30.1 in WNW 0.9 mph 12 mph 95% 0 in 44 W/m2
11:24 55.6 °F 54.1 °F 30.1 in West 0.9 mph 6 mph 95% 0 in 53 W/m2
11:29 55.6 °F 54.1 °F 30.1 in NW 4 mph 12 mph 95% 0 in 53 W/m2
11:34 55.8 °F 54.3 °F 30.1 in NW 2 mph 9 mph 95% 0 in 62 W/m2
11:39 55.8 °F 54.3 °F 30.1 in WNW 2.9 mph 4 mph 95% 0 in 102 W/m2
11:44 55.8 °F 54.3 °F 30.1 in NW 2.9 mph 9 mph 95% 0 in 88 W/m2
11:49 55.8 °F 54.3 °F 30.1 in WNW 2.9 mph 8 mph 95% 0 in 74 W/m2
11:54 55.9 °F 54.5 °F 30.1 in West 6.9 mph 13 mph 95% 0 in 69 W/m2
11:59 55.9 °F 54.3 °F 30.1 in WNW 6.9 mph 9 mph 94% 0 in 88 W/m2
12:04 55.9 °F 54.3 °F 30.1 in WNW 6.9 mph 8 mph 94% 0 in 72 W/m2
12:09 56.1 °F 54.5 °F 30.1 in NW 4 mph 7 mph 94% 0 in 77 W/m2
12:14 56.1 °F 54.5 °F 30.1 in NNW 4 mph 8 mph 94% 0 in 84 W/m2
12:19 56.1 °F 54.1 °F 30.1 in Calm   6 mph 93% 0 in 79 W/m2
12:24 56.3 °F 54.3 °F 30.1 in SSW 2.9 mph 4 mph 93% 0 in 84 W/m2
12:29 56.3 °F 54.3 °F 30.1 in West 8.9 mph 9 mph 93% 0 in 104 W/m2
12:34 56.5 °F 54.5 °F 30.1 in West 0.9 mph 5 mph 93% 0 in 118 W/m2
12:39 56.5 °F 54.5 °F 30.1 in SW 6 mph 10 mph 93% 0 in 120 W/m2
12:44 56.7 °F 54.3 °F 30.1 in WSW 0.9 mph 3 mph 92% 0 in 123 W/m2
12:49 56.7 °F 54.3 °F 30.1 in WNW 2 mph 2 mph 92% 0 in 76 W/m2
12:54 56.7 °F 54.3 °F 30.1 in NW 0.9 mph 5 mph 92% 0 in 120 W/m2
12:59 56.7 °F 54.3 °F 30.1 in NW 2 mph 4 mph 92% 0 in 163 W/m2
13:04 56.8 °F 54.5 °F 30.1 in Calm   2 mph 92% 0 in 132 W/m2
13:09 56.8 °F 54.5 °F 30.1 in Calm   4 mph 92% 0 in 137 W/m2
13:14 57 °F 54.5 °F 30.1 in West 2 mph 5 mph 91% 0 in 95 W/m2
13:19 57 °F 54.5 °F 30.1 in WSW 6.9 mph 9 mph 91% 0 in 74 W/m2
13:24 57 °F 54.5 °F 30.1 in Calm   9 mph 91% 0 in 60 W/m2
13:29 56.8 °F 54.3 °F 30.1 in ENE 2 mph 3 mph 91% 0 in 128 W/m2
13:34 56.7 °F 54.1 °F 30.1 in SW 2.9 mph 4 mph 91% 0 in 54 W/m2
13:39 56.7 °F 54.1 °F 30.1 in WSW 2 mph 3 mph 91% 0 in 72 W/m2
13:44 56.7 °F 54.1 °F 30.1 in South 0.9 mph 4 mph 91% 0 in 37 W/m2
13:49 56.7 °F 54.1 °F 30.1 in NE 0.9 mph 3 mph 91% 0 in 104 W/m2
13:54 56.7 °F 54.1 °F 30.1 in SW 0.9 mph 11 mph 91% 0 in 123 W/m2
13:59 56.7 °F 54.1 °F 30.1 in ENE 0.9 mph 9 mph 91% 0 in 74 W/m2
14:04 56.8 °F 54.3 °F 30.1 in WNW 6 mph 11 mph 91% 0 in 72 W/m2
14:09 56.8 °F 54 °F 30.1 in NW 2.9 mph 7 mph 90% 0 in 86 W/m2
14:14 56.8 °F 54 °F 30.1 in West 0.9 mph 9 mph 90% 0 in 69 W/m2
14:19 56.8 °F 54 °F 30.1 in West 8.1 mph 8 mph 90% 0 in 35 W/m2
14:24 56.7 °F 53.8 °F 30.1 in WNW 4 mph 7 mph 90% 0 in 42 W/m2
14:29 56.7 °F 53.8 °F 30.1 in WSW 0.9 mph 9 mph 90% 0 in 51 W/m2
14:34 56.7 °F 54.1 °F 30.1 in Calm   2 mph 91% 0 in 51 W/m2
14:39 56.5 °F 54 °F 30.1 in NW 2.9 mph 11 mph 91% 0.01 in 47 W/m2
14:44 56.5 °F 54 °F 30.1 in NW 2 mph 4 mph 91% 0.01 in 62 W/m2
14:49 56.3 °F 53.8 °F 30.1 in WSW 2.9 mph 10 mph 91% 0.01 in 62 W/m2
14:54 56.1 °F 53.6 °F 30.1 in NW 2.9 mph 4 mph 91% 0.01 in 54 W/m2
14:59 56.1 °F 53.6 °F 30.1 in North 2 mph 5 mph 91% 0.01 in 65 W/m2
15:04 56.1 °F 53.6 °F 30.1 in WSW 4 mph 6 mph 91% 0.01 in 67 W/m2
15:09 56.1 °F 53.6 °F 30.1 in ESE 2 mph 6 mph 91% 0.01 in 53 W/m2
15:14 56.1 °F 53.6 °F 30.1 in NW 2.9 mph 4 mph 91% 0.01 in 33 W/m2
15:19 56.1 °F 53.6 °F 30.1 in South 2.9 mph 6 mph 91% 0.01 in 39 W/m2
15:24 56.1 °F 53.6 °F 30.1 in NNW 0.9 mph 2 mph 91% 0.01 in 30 W/m2
15:29 56.1 °F 53.6 °F 30.1 in WNW 0.9 mph 3 mph 91% 0.01 in 25 W/m2
15:34 56.1 °F 53.6 °F 30.1 in Calm   2 mph 91% 0.01 in 12 W/m2
15:39 56.1 °F 53.6 °F 30.1 in NW 6.9 mph 9 mph 91% 0 in 19 W/m2
15:44 56.1 °F 53.6 °F 30.1 in WNW 0.9 mph 2 mph 91% 0 in 21 W/m2
15:49 56.1 °F 53.6 °F 30.1 in WNW 0.9 mph 5 mph 91% 0 in 23 W/m2
15:54 55.9 °F 53.4 °F 30.1 in West 2 mph 3 mph 91% 0 in 23 W/m2
15:59 55.9 °F 53.4 °F 30.1 in SSW 2 mph 5 mph 91% 0 in 16 W/m2
16:04 55.9 °F 53.4 °F 30.1 in ESE 0.9 mph 4 mph 91% 0 in 18 W/m2
16:09 55.9 °F 53.4 °F 30.1 in WNW 4 mph 9 mph 91% 0 in 11 W/m2
16:14 55.9 °F 53.4 °F 30.1 in ENE 2.9 mph 6 mph 91% 0 in 16 W/m2
16:19 55.8 °F 53.2 °F 30.1 in ESE 2 mph 5 mph 91% 0 in 16 W/m2
16:24 55.8 °F 53.4 °F 30.1 in NW 2 mph 2 mph 92% 0 in 12 W/m2
16:29 55.6 °F 53.2 °F 30.1 in NE 0.9 mph 3 mph 92% 0 in 9 W/m2
16:34 55.6 °F 53.2 °F 30.1 in NW 2 mph 5 mph 92% 0 in 5 W/m2
16:39 55.6 °F 53.2 °F 30.1 in WNW 2.9 mph 5 mph 92% 0 in 5 W/m2
16:44 55.6 °F 53.2 °F 30.1 in NW 2 mph 9 mph 92% 0 in 5 W/m2
16:49 55.6 °F 53.2 °F 30.1 in SW 4 mph 8 mph 92% 0 in 5 W/m2
16:54 55.6 °F 53.2 °F 30.1 in Calm   9 mph 92% 0 in 5 W/m2
16:59 55.4 °F 53.1 °F 30.1 in NNW 0.9 mph 2 mph 92% 0 in 0 W/m2
17:04 55.4 °F 53.1 °F 30.1 in NW 2 mph 3 mph 92% 0 in 0 W/m2
17:09 55.4 °F 53.1 °F 30.1 in WNW 2.9 mph 8 mph 92% 0 in 0 W/m2
17:14 55.4 °F 53.1 °F 30.1 in SW 2.9 mph 5 mph 92% 0 in 0 W/m2
17:19 55.4 °F 53.1 °F 30.1 in NW 0.9 mph 8 mph 92% 0 in 0 W/m2
17:24 55.4 °F 53.1 °F 30.1 in WNW 2 mph 2 mph 92% 0 in 0 W/m2
17:29 55.2 °F 52.9 °F 30.2 in Calm   2 mph 92% 0 in 0 W/m2
17:34 55.2 °F 52.9 °F 30.1 in Calm   1 mph 92% 0 in 0 W/m2
17:39 55.2 °F 52.9 °F 30.2 in NW 0.9 mph 3 mph 92% 0 in 0 W/m2
17:44 55.2 °F 52.9 °F 30.2 in West 2.9 mph 4 mph 92% 0 in 0 W/m2
17:49 55.2 °F 52.9 °F 30.2 in Calm   2 mph 92% 0 in 0 W/m2
17:54 55.2 °F 52.9 °F 30.2 in West 0.9 mph 8 mph 92% 0 in 0 W/m2
17:59 55.2 °F 52.9 °F 30.2 in WSW 6.9 mph 7 mph 92% 0 in 0 W/m2
18:04 55 °F 52.7 °F 30.2 in West 2 mph 8 mph 92% 0 in 0 W/m2
18:09 55 °F 52.7 °F 30.2 in West 2.9 mph 4 mph 92% 0 in 0 W/m2
18:14 55 °F 53.1 °F 30.2 in North 2 mph 8 mph 93% 0 in 0 W/m2
18:19 55 °F 53.1 °F 30.2 in ESE 2 mph 2 mph 93% 0 in 0 W/m2
18:24 55 °F 53.1 °F 30.2 in SW 2 mph 4 mph 93% 0 in 0 W/m2
18:29 55 °F 53.1 °F 30.2 in WNW 0.9 mph 7 mph 93% 0 in 0 W/m2
18:34 55 °F 53.1 °F 30.2 in Calm   2 mph 93% 0 in 0 W/m2
18:39 55 °F 53.1 °F 30.2 in WNW 0.9 mph 6 mph 93% 0 in 0 W/m2
18:44 55 °F 53.1 °F 30.2 in Calm   2 mph 93% 0 in 0 W/m2
18:49 54.9 °F 52.9 °F 30.2 in Calm   4 mph 93% 0 in 0 W/m2
18:54 54.9 °F 52.9 °F 30.2 in NNW 0.9 mph 3 mph 93% 0 in 0 W/m2
18:59 54.9 °F 52.9 °F 30.2 in NW 0.9 mph 4 mph 93% 0 in 0 W/m2
19:04 54.9 °F 52.9 °F 30.2 in Calm     93% 0 in 0 W/m2
19:09 54.9 °F 52.9 °F 30.2 in NW 2 mph 4 mph 93% 0 in 0 W/m2
19:14 54.9 °F 52.9 °F 30.2 in West 0.9 mph 2 mph 93% 0 in 0 W/m2
19:19 54.7 °F 52.7 °F 30.2 in Calm   4 mph 93% 0 in 0 W/m2
19:24 54.7 °F 52.7 °F 30.2 in Calm   1 mph 93% 0 in 0 W/m2
19:29 54.5 °F 52.5 °F 30.2 in NW 0.9 mph 4 mph 93% 0 in 0 W/m2
19:34 54.3 °F 52.3 °F 30.2 in Calm     93% 0 in 0 W/m2
19:39 54.3 °F 52.7 °F 30.2 in Calm   4 mph 94% 0 in 0 W/m2
19:44 54.3 °F 52.7 °F 30.2 in WNW 0.9 mph 2 mph 94% 0 in 0 W/m2
19:49 54.3 °F 52.7 °F 30.2 in Calm   1 mph 94% 0 in 0 W/m2
19:54 54.3 °F 52.7 °F 30.2 in North 2 mph 2 mph 94% 0 in 0 W/m2
19:59 54.3 °F 52.7 °F 30.2 in West 2 mph 2 mph 94% 0 in 0 W/m2
20:04 54.3 °F 52.7 °F 30.2 in NW 2 mph 4 mph 94% 0 in 0 W/m2
20:09 54.3 °F 52.7 °F 30.2 in NW 0.9 mph 2 mph 94% 0 in 0 W/m2
20:14 54.3 °F 52.3 °F 30.2 in Calm   2 mph 93% 0 in 0 W/m2
20:19 54.3 °F 52.3 °F 30.2 in SSW 0.9 mph 4 mph 93% 0 in 0 W/m2
20:24 54.3 °F 52.3 °F 30.2 in Calm     93% 0 in 0 W/m2
20:29 54.3 °F 52.3 °F 30.2 in Calm   3 mph 93% 0 in 0 W/m2
20:34 54.3 °F 52.3 °F 30.2 in Calm   2 mph 93% 0 in 0 W/m2
20:39 54.1 °F 52.2 °F 30.2 in Calm     93% 0 in 0 W/m2
20:44 54.1 °F 52.2 °F 30.2 in Calm   3 mph 93% 0 in 0 W/m2
20:49 54.1 °F 52.2 °F 30.2 in Calm     93% 0 in 0 W/m2
20:54 54.1 °F 52.2 °F 30.2 in Calm   2 mph 93% 0 in 0 W/m2
20:59 54 °F 52 °F 30.2 in Calm   2 mph 93% 0 in 0 W/m2
21:04 54 °F 52.3 °F 30.2 in Calm   1 mph 94% 0 in 0 W/m2
21:09 54 °F 52 °F 30.2 in Calm     93% 0 in 0 W/m2
21:14 53.8 °F 51.8 °F 30.2 in ESE 0.9 mph 2 mph 93% 0 in 0 W/m2
21:19 53.8 °F 51.8 °F 30.2 in Calm     93% 0 in 0 W/m2
21:24 53.8 °F 52.2 °F 30.2 in Calm   2 mph 94% 0 in 0 W/m2
21:29 53.8 °F 52.2 °F 30.2 in Calm     94% 0 in 0 W/m2
21:34 53.6 °F 52 °F 30.2 in ESE 0.9 mph 2 mph 94% 0 in 0 W/m2
21:39 53.4 °F 51.8 °F 30.2 in Calm     94% 0 in 0 W/m2
21:44 53.4 °F 51.8 °F 30.2 in Calm     94% 0 in 0 W/m2
21:49 53.4 °F 51.8 °F 30.2 in Calm   2 mph 94% 0 in 0 W/m2
21:54 53.4 °F 51.8 °F 30.2 in Calm   2 mph 94% 0 in 0 W/m2
21:59 53.4 °F 51.8 °F 30.2 in Calm     94% 0 in 0 W/m2
22:04 53.2 °F 51.6 °F 30.2 in ENE 2 mph 2 mph 94% 0 in 0 W/m2
22:09 53.2 °F 51.6 °F 30.2 in Calm     94% 0 in 0 W/m2
22:14 53.2 °F 51.6 °F 30.2 in Calm     94% 0 in 0 W/m2
22:19 53.1 °F 51.4 °F 30.2 in Calm     94% 0 in 0 W/m2
22:24 52.9 °F 51.3 °F 30.2 in Calm     94% 0 in 0 W/m2
22:29 52.5 °F 50.5 °F 30.2 in Calm     93% 0 in 0 W/m2
22:34 52.3 °F 50.7 °F 30.2 in Calm     94% 0 in 0 W/m2
22:39 52 °F 50.4 °F 30.2 in Calm     94% 0 in 0 W/m2
22:44 51.6 °F 50 °F 30.2 in Calm     94% 0 in 0 W/m2
22:49 51.4 °F 49.8 °F 30.2 in Calm     94% 0 in 0 W/m2
22:54 51.4 °F 50 °F 30.2 in Calm     95% 0 in 0 W/m2
22:59 51.4 °F 50 °F 30.2 in Calm   1 mph 95% 0 in 0 W/m2
23:04 51.8 °F 50.4 °F 30.2 in Calm   1 mph 95% 0 in 0 W/m2
23:09 52 °F 50.5 °F 30.2 in Calm   1 mph 95% 0 in 0 W/m2
23:14 52 °F 50.5 °F 30.2 in SE 0.9 mph 2 mph 95% 0 in 0 W/m2
23:19 52 °F 50.5 °F 30.2 in Calm   2 mph 95% 0 in 0 W/m2
23:24 52 °F 50.5 °F 30.2 in SSE 0.9 mph 2 mph 95% 0 in 0 W/m2
23:29 52 °F 50.5 °F 30.2 in Calm   1 mph 95% 0 in 0 W/m2
23:34 52 °F 50.5 °F 30.2 in Calm   2 mph 95% 0 in 0 W/m2
23:39 52 °F 50.5 °F 30.2 in SSE 0.9 mph 2 mph 95% 0 in 0 W/m2
23:44 52 °F 50.5 °F 30.2 in Calm   2 mph 95% 0 in 0 W/m2
23:49 52.2 °F 51.1 °F 30.2 in ESE 0.9 mph 2 mph 96% 0 in 0 W/m2
23:54 52.2 °F 50.7 °F 30.2 in Calm     95% 0 in 0 W/m2
23:59 52.2 °F 50.7 °F 30.2 in Calm   2 mph 95% 0 in 0 W/m2
Juneau County Weather
Compliments of Weather Underground - 4 mb